Skip Navigation Links
NOAA logo - Click to go to the NOAA homepage
NOAA's National Weather Service
Alaska Aviation Weather Unit
  NWS logo - Click to go to the NWS homepage
Left Navbar Graphic     00 AKDT = 08 GMT

   
NOAA is celebrating 200 years of science, service, and stewardship. Visit the NOAA 200th celebration Web site to learn more.
USA.gov is the U.S. Government's official Web portal to all Federal, state and local government Web resources and services.
Facebook
NWS on Facebook

Important Change Regarding the AAWU Web Presence

 

Over the last several months, the AAWU has been working to navigate its webpages to a nationally supported server. Security, as well as other needs, have necessitated the change.  We have been given an extension for the site changeover while we diligently work at addressing feedback received. As of July 14, 2017, aawu.arh.noaa.gov will be discontinued. The new AAWU web address is weather.gov/aawu. It is now live and will run in-parallel with the old site until it is discontinued on July 14, 2017. Please continue to send any feedback or questions regarding the new webpages to nws.ar.aawu.webauthors@noaa.gov.  Thank you for your patience during this time of transition.
AAWU Home :: Display TAF Add Bookmark
TAF CYFS 102338Z 1100/1112 18010G20KT P6SM SCT210
     BECMG 1103/1105 15007KT
    RMK NXT FCST BY 110600Z=

METAR CYFS 240200Z 10003KT 050V150 15SM BKN140 11/02 A2989 RMK AC6 SLP130= METAR CYFS 240300Z VRB02KT 15SM FEW074 BKN140 10/02 A2988 RMK AC1AC7 AC TR SLP128= METAR CYFS 240400Z 10003KT 040V170 15SM SCT063 OVC140 10/02 A2987 RMK SC3AC5 SLP126= METAR CYFS 240500Z 12005KT 030V180 15SM FEW070 SCT110 BKN140 10/02 A2987 RMK AC1AC2AC4 SLP124= METAR CYFS 240600Z 11004KT 050V190 15SM FEW069 SCT096 BKN130 09/02 A2986 RMK AC2AC1AC3 SLP122= METAR CYFS 240700Z 13005KT 070V170 15SM SCT057 BKN130 09/02 A2986 RMK SC4AC3 SLP123= METAR CYFS 240800Z 13006KT 070V160 15SM BKN055 BKN130 08/02 A2986 RMK SC6AC1 SLP120=
 Alaska TAF Map

NOAA's National Weather Service
Alaska Aviation Weather Unit
6930 Sand Lake Road
Anchorage, AK 99502-1845
Disclaimer
Credits
Glossary
Privacy Policy
About Us
Career Opportunities
Contact AAWU Internet Services Site last modified: April, 17th 2012